createdAt,value
2024-01-08T00:01:07.027Z,64.68
2024-01-08T00:04:11.666Z,44.33
2024-01-08T00:07:15.311Z,127.15
2024-01-08T00:10:18.883Z,83.80
2024-01-08T00:13:22.024Z,46.17
2024-01-08T00:16:24.994Z,54.05
2024-01-08T00:19:28.369Z,41.33
2024-01-08T00:22:32.098Z,33.78
2024-01-08T00:25:36.344Z,37.55
2024-01-08T00:28:40.080Z,79.27
2024-01-08T00:31:43.386Z,47.88
2024-01-08T00:34:46.445Z,46.20
2024-01-08T00:37:50.040Z,92.93
2024-01-08T00:40:53.755Z,65.68
2024-01-08T00:43:56.834Z,33.40
2024-01-08T00:46:59.932Z,42.40
2024-01-08T00:50:03.766Z,48.27
2024-01-08T00:53:06.835Z,117.13
2024-01-08T00:56:11.137Z,67.75
2024-01-08T00:59:14.284Z,109.50
2024-01-08T01:02:17.459Z,77.38
2024-01-08T01:05:20.414Z,52.97
2024-01-08T01:08:24.579Z,39.08
2024-01-08T01:11:27.533Z,59.67
2024-01-08T01:14:31.843Z,46.40
2024-01-08T01:17:35.006Z,60.53
2024-01-08T01:20:38.795Z,148.83
2024-01-08T01:23:42.041Z,98.85
2024-01-08T01:26:46.279Z,80.75
2024-01-08T01:29:49.778Z,37.37
2024-01-08T01:32:52.852Z,46.53
2024-01-08T01:35:56.472Z,57.95
2024-01-08T01:39:00.138Z,56.08
2024-01-08T01:42:03.484Z,55.55
2024-01-08T01:45:07.455Z,35.63
2024-01-08T01:48:10.636Z,60.65
2024-01-08T01:51:16.885Z,53.60
2024-01-08T01:54:23.675Z,103.97
2024-01-08T01:57:28.233Z,64.05
2024-01-08T02:00:32.646Z,124.07
2024-01-08T02:03:36.926Z,67.70
2024-01-08T02:06:42.275Z,55.97
2024-01-08T02:09:46.504Z,85.63
2024-01-08T02:12:49.500Z,107.10
2024-01-08T02:15:53.251Z,143.77
2024-01-08T02:18:57.042Z,70.13
2024-01-08T02:22:00.002Z,127.67
2024-01-08T02:25:02.981Z,112.13
2024-01-08T02:28:07.419Z,101.85
2024-01-08T02:31:11.211Z,54.70
2024-01-08T02:34:14.916Z,106.47
2024-01-08T02:37:18.136Z,100.38
2024-01-08T02:40:21.369Z,73.28
2024-01-08T02:43:24.654Z,125.45
2024-01-08T02:46:28.326Z,90.20
2024-01-08T02:49:31.175Z,57.80
2024-01-08T02:52:35.671Z,63.53
2024-01-08T02:55:39.748Z,61.08
2024-01-08T02:58:43.243Z,169.95
2024-01-08T03:01:49.058Z,46.40
2024-01-08T03:04:52.080Z,79.72
2024-01-08T03:07:56.216Z,80.70
2024-01-08T03:10:59.900Z,146.65
2024-01-08T03:14:03.676Z,113.65
2024-01-08T03:17:07.660Z,81.28
2024-01-08T03:20:12.026Z,110.18
2024-01-08T03:23:15.045Z,117.67
2024-01-08T03:26:19.262Z,62.17
2024-01-08T03:29:24.496Z,148.05
2024-01-08T03:32:28.789Z,160.13
2024-01-08T03:35:32.550Z,102.43
2024-01-08T03:38:36.104Z,95.82
2024-01-08T03:41:39.512Z,159.73
2024-01-08T03:44:43.648Z,138.63
2024-01-08T03:47:47.347Z,217.65
2024-01-08T03:50:51.556Z,132.43
2024-01-08T03:53:55.275Z,90.77
2024-01-08T03:56:58.677Z,235.40
2024-01-08T04:00:02.176Z,147.65
2024-01-08T04:03:15.920Z,199.00
2024-01-08T04:06:19.710Z,208.27
2024-01-08T04:09:23.082Z,263.35
2024-01-08T04:12:26.946Z,100.55
2024-01-08T04:15:30.632Z,290.50
2024-01-08T04:18:34.747Z,93.30
2024-01-08T04:21:38.330Z,240.45
2024-01-08T04:24:42.422Z,220.93
2024-01-08T04:27:46.212Z,225.18
2024-01-08T04:30:50.386Z,159.00
2024-01-08T04:33:53.544Z,202.80
2024-01-08T04:36:57.237Z,213.32
2024-01-08T04:40:00.478Z,158.98
2024-01-08T04:43:03.712Z,157.85
2024-01-08T04:46:10.322Z,120.60
2024-01-08T04:49:14.774Z,155.27
2024-01-08T04:52:17.883Z,151.30
2024-01-08T04:55:21.636Z,168.33
2024-01-08T04:58:25.432Z,100.80
2024-01-08T05:01:28.922Z,145.57
2024-01-08T05:04:32.589Z,157.10
2024-01-08T05:07:36.474Z,136.00
2024-01-08T05:10:39.561Z,102.57
2024-01-08T05:13:43.105Z,163.55
2024-01-08T05:16:46.981Z,152.20
2024-01-08T05:19:53.258Z,140.15
2024-01-08T05:22:56.902Z,156.82
2024-01-08T05:26:01.641Z,132.47
2024-01-08T05:29:06.194Z,141.40
2024-01-08T05:32:10.566Z,137.98
2024-01-08T05:35:14.620Z,126.67
2024-01-08T05:38:19.006Z,133.10
2024-01-08T05:41:26.019Z,133.27
2024-01-08T05:44:30.127Z,127.40
2024-01-08T05:47:34.010Z,155.98
2024-01-08T05:50:38.309Z,140.52
2024-01-08T05:53:42.460Z,142.38
2024-01-08T05:56:46.525Z,120.10
2024-01-08T05:59:50.486Z,117.47
2024-01-08T06:02:54.903Z,141.75
2024-01-08T06:05:58.542Z,103.83
2024-01-08T06:09:03.025Z,110.28
2024-01-08T06:12:07.395Z,102.97
2024-01-08T06:15:12.803Z,108.97
2024-01-08T06:18:17.672Z,100.38
2024-01-08T06:21:21.798Z,108.78
2024-01-08T06:24:24.932Z,111.13
2024-01-08T06:27:29.147Z,129.30
2024-01-08T06:30:33.865Z,117.70
2024-01-08T06:33:39.954Z,137.38
2024-01-08T06:36:43.639Z,187.13
2024-01-08T06:39:47.128Z,126.40
2024-01-08T06:43:00.251Z,119.93
2024-01-08T06:46:09.123Z,115.88
2024-01-08T06:49:12.930Z,123.05
2024-01-08T06:52:16.529Z,144.38
2024-01-08T06:55:20.267Z,147.98
2024-01-08T06:58:24.504Z,161.00
2024-01-08T07:01:28.198Z,158.00
2024-01-08T07:04:32.534Z,160.55
2024-01-08T07:07:37.828Z,96.20
2024-01-08T07:10:41.691Z,71.40
2024-01-08T07:13:44.630Z,76.50
2024-01-08T07:16:47.936Z,44.83
2024-01-08T07:19:50.897Z,37.28
2024-01-08T07:22:54.238Z,31.77
2024-01-08T07:25:57.952Z,43.10
2024-01-08T07:29:02.181Z,45.17
2024-01-08T07:32:05.563Z,49.15
2024-01-08T07:35:10.546Z,82.45
2024-01-08T07:38:14.468Z,74.67
2024-01-08T07:41:18.772Z,65.43
2024-01-08T07:44:25.405Z,70.80
2024-01-08T07:47:30.116Z,78.22
2024-01-08T07:50:34.017Z,107.88
2024-01-08T07:53:38.824Z,130.20
2024-01-08T07:56:52.730Z,76.07
2024-01-08T08:00:01.201Z,68.27
2024-01-08T08:03:07.802Z,86.50
2024-01-08T08:06:12.550Z,79.13
2024-01-08T08:09:15.739Z,92.93
2024-01-08T08:12:19.912Z,113.75
2024-01-08T08:15:22.855Z,116.70
2024-01-08T08:18:27.135Z,105.38
2024-01-08T08:21:30.218Z,131.07
2024-01-08T08:24:33.852Z,115.03
2024-01-08T08:27:37.341Z,165.30
2024-01-08T08:30:40.321Z,170.03
2024-01-08T08:33:44.416Z,189.05
2024-01-08T08:36:47.627Z,185.27
2024-01-08T08:39:51.339Z,182.60
2024-01-08T08:42:54.293Z,178.68
2024-01-08T08:45:59.890Z,197.98
2024-01-08T08:49:04.367Z,159.32
2024-01-08T08:52:07.727Z,116.97
2024-01-08T08:55:11.844Z,133.25
2024-01-08T08:58:14.881Z,146.60
2024-01-08T09:01:19.374Z,103.47
2024-01-08T09:04:27.590Z,111.20
2024-01-08T09:07:32.815Z,90.50
2024-01-08T09:10:36.915Z,114.53
2024-01-08T09:13:41.082Z,122.95
2024-01-08T09:16:45.636Z,178.38
2024-01-08T09:19:53.372Z,156.57
2024-01-08T09:22:58.688Z,138.88
2024-01-08T09:26:02.412Z,111.55
2024-01-08T09:29:06.665Z,68.63
2024-01-08T09:32:10.593Z,80.53
2024-01-08T09:35:18.032Z,60.90
2024-01-08T09:38:21.935Z,108.70
2024-01-08T09:41:25.694Z,70.07
2024-01-08T09:44:32.056Z,67.38
2024-01-08T09:47:36.576Z,77.40
2024-01-08T09:50:40.854Z,90.43
2024-01-08T09:53:46.816Z,112.05
2024-01-08T09:56:52.244Z,115.63
2024-01-08T09:59:57.116Z,90.85
2024-01-08T10:03:00.746Z,95.47
2024-01-08T10:06:11.195Z,89.82
2024-01-08T10:09:15.514Z,69.72
2024-01-08T10:12:19.527Z,74.30
2024-01-08T10:15:23.974Z,54.08
2024-01-08T10:18:30.557Z,71.97
2024-01-08T10:21:34.130Z,74.88
2024-01-08T10:24:39.827Z,101.80
2024-01-08T10:27:43.955Z,99.25
2024-01-08T10:30:47.179Z,126.55
2024-01-08T10:33:50.762Z,103.73
2024-01-08T10:36:57.387Z,148.05
2024-01-08T10:40:25.431Z,99.72
2024-01-08T10:43:33.137Z,151.77
2024-01-08T10:46:42.933Z,108.13
2024-01-08T10:49:52.634Z,111.03
2024-01-08T10:52:59.226Z,79.55
2024-01-08T10:56:07.167Z,79.55
2024-01-08T10:59:11.430Z,112.05
2024-01-08T11:02:18.708Z,70.55
2024-01-08T11:05:27.686Z,115.63
2024-01-08T11:08:33.200Z,112.18
2024-01-08T11:11:40.432Z,132.15
2024-01-08T11:14:48.185Z,117.67
2024-01-08T11:17:54.290Z,104.63
2024-01-08T11:20:59.108Z,102.90
2024-01-08T11:24:02.724Z,138.68
2024-01-08T11:27:06.694Z,75.75
2024-01-08T11:30:10.138Z,76.38
2024-01-08T11:33:29.033Z,81.60
2024-01-08T11:36:50.624Z,78.60
2024-01-08T11:39:55.193Z,87.40
2024-01-08T11:43:00.612Z,63.10
2024-01-08T11:46:05.888Z,95.60
2024-01-08T11:49:08.989Z,77.70
2024-01-08T11:52:14.440Z,73.85
2024-01-08T11:55:19.290Z,75.13
2024-01-08T11:58:22.706Z,64.25
2024-01-08T12:01:26.031Z,55.55
2024-01-08T12:04:30.180Z,71.13
2024-01-08T12:07:34.007Z,60.07
2024-01-08T12:10:39.475Z,63.95
2024-01-08T12:13:43.196Z,59.47
2024-01-08T12:16:55.568Z,49.17
2024-01-08T12:20:07.258Z,43.95
2024-01-08T12:23:13.480Z,56.55
2024-01-08T12:26:21.069Z,58.70
2024-01-08T12:29:24.553Z,64.32
2024-01-08T12:32:29.704Z,45.28
2024-01-08T12:35:34.366Z,34.55
2024-01-08T12:38:37.486Z,22.27
2024-01-08T12:41:40.666Z,60.53
2024-01-08T12:44:51.397Z,63.55
2024-01-08T12:47:55.940Z,72.50
2024-01-08T12:50:59.672Z,75.60
2024-01-08T12:54:03.728Z,99.18
2024-01-08T12:57:07.894Z,68.65
2024-01-08T13:00:15.593Z,35.13
2024-01-08T13:03:19.169Z,38.03
2024-01-08T13:06:24.582Z,43.25
2024-01-08T13:09:30.094Z,40.03
2024-01-08T13:12:33.682Z,32.22
2024-01-08T13:15:39.611Z,37.78
2024-01-08T13:18:43.581Z,18.80
2024-01-08T13:21:48.543Z,38.20
2024-01-08T13:24:52.264Z,38.80
2024-01-08T13:27:56.651Z,46.40
2024-01-08T13:31:00.040Z,60.70
2024-01-08T13:34:08.701Z,54.97
2024-01-08T13:37:12.472Z,50.22
2024-01-08T13:40:16.110Z,82.97
2024-01-08T13:43:21.972Z,74.72
2024-01-08T13:46:25.740Z,40.80
2024-01-08T13:49:29.608Z,51.70
2024-01-08T13:52:33.395Z,38.42
2024-01-08T13:55:36.480Z,24.80
2024-01-08T13:58:39.434Z,47.65
2024-01-08T14:01:42.718Z,26.13
2024-01-08T14:04:45.695Z,58.60
2024-01-08T14:07:49.570Z,50.72
2024-01-08T14:10:52.693Z,58.57
2024-01-08T14:13:55.857Z,29.77
2024-01-08T14:17:00.766Z,18.60
2024-01-08T14:20:04.051Z,7.70
2024-01-08T14:23:07.353Z,36.72
2024-01-08T14:26:10.723Z,39.67
2024-01-08T14:29:14.622Z,39.80
2024-01-08T14:32:18.812Z,29.92
2024-01-08T14:35:22.970Z,32.50
2024-01-08T14:38:26.324Z,15.52
2024-01-08T14:41:29.353Z,24.17
2024-01-08T14:44:34.559Z,36.38
2024-01-08T14:47:39.370Z,38.78
2024-01-08T14:50:43.647Z,49.63
2024-01-08T14:53:49.833Z,22.65
2024-01-08T14:56:53.666Z,46.45
2024-01-08T14:59:56.975Z,39.88
2024-01-08T15:03:00.034Z,15.48
2024-01-08T15:06:03.727Z,32.47
2024-01-08T15:09:07.162Z,34.88
2024-01-08T15:12:10.899Z,29.40
2024-01-08T15:15:14.645Z,27.67
2024-01-08T15:18:18.387Z,21.50
2024-01-08T15:21:25.157Z,35.53
2024-01-08T15:24:31.026Z,31.50
2024-01-08T15:27:34.696Z,19.08
2024-01-08T15:30:38.318Z,21.60
2024-01-08T15:33:43.345Z,21.73
2024-01-08T15:36:46.330Z,17.23
2024-01-08T15:39:49.937Z,21.42
2024-01-08T15:42:53.997Z,35.90
2024-01-08T15:45:56.950Z,32.53
2024-01-08T15:49:03.796Z,24.38
2024-01-08T15:52:07.946Z,23.60
2024-01-08T15:55:11.228Z,18.30
2024-01-08T15:58:14.232Z,33.67
2024-01-08T16:01:17.558Z,34.90
2024-01-08T16:04:21.246Z,24.73
2024-01-08T16:07:26.566Z,29.30
2024-01-08T16:10:29.499Z,51.75
2024-01-08T16:13:32.606Z,36.67
2024-01-08T16:16:35.710Z,31.88
2024-01-08T16:19:42.807Z,20.40
2024-01-08T16:22:46.195Z,22.40
2024-01-08T16:25:49.655Z,20.80
2024-01-08T16:28:52.673Z,32.05
2024-01-08T16:31:56.270Z,29.90
2024-01-08T16:35:02.940Z,27.55
2024-01-08T16:38:06.107Z,27.60
2024-01-08T16:41:09.964Z,45.03
2024-01-08T16:44:14.052Z,22.60
2024-01-08T16:47:22.150Z,38.30
2024-01-08T16:50:25.369Z,21.30
2024-01-08T16:53:29.799Z,18.57
2024-01-08T16:56:33.286Z,22.83
2024-01-08T16:59:36.964Z,26.23
2024-01-08T17:02:41.106Z,39.92
2024-01-08T17:05:44.576Z,40.97
2024-01-08T17:08:52.458Z,18.30
2024-01-08T17:11:55.498Z,24.77
2024-01-08T17:14:59.222Z,28.47
2024-01-08T17:18:03.184Z,30.85
2024-01-08T17:21:07.493Z,31.67
2024-01-08T17:24:11.177Z,26.87
2024-01-08T17:27:15.065Z,18.85
2024-01-08T17:30:18.959Z,23.50
2024-01-08T17:33:22.986Z,18.88
2024-01-08T17:36:28.139Z,29.48
2024-01-08T17:39:32.082Z,25.15
2024-01-08T17:42:36.920Z,17.23
2024-01-08T17:45:41.204Z,14.47
2024-01-08T17:48:44.880Z,24.08
2024-01-08T17:51:48.729Z,17.40
2024-01-08T17:54:51.543Z,28.97
2024-01-08T17:57:55.763Z,31.20
2024-01-08T18:00:59.415Z,26.55
2024-01-08T18:04:10.155Z,38.60
2024-01-08T18:07:15.041Z,23.88
2024-01-08T18:10:19.264Z,30.05
2024-01-08T18:13:22.114Z,38.03
2024-01-08T18:16:25.480Z,54.83
2024-01-08T18:19:29.338Z,59.90
2024-01-08T18:22:33.274Z,44.85
2024-01-08T18:25:37.298Z,17.57
2024-01-08T18:28:40.851Z,69.88
2024-01-08T18:31:44.981Z,39.90
2024-01-08T18:34:49.621Z,26.48
2024-01-08T18:37:53.594Z,29.83
2024-01-08T18:40:57.637Z,27.92
2024-01-08T18:44:05.467Z,21.33
2024-01-08T18:47:09.363Z,13.40
2024-01-08T18:50:13.825Z,17.35
2024-01-08T18:53:17.489Z,33.72
2024-01-08T18:56:20.815Z,18.53
2024-01-08T18:59:24.682Z,24.35
2024-01-08T19:02:29.139Z,12.63
2024-01-08T19:05:33.902Z,6.53
2024-01-08T19:08:37.773Z,15.85
2024-01-08T19:11:41.496Z,44.15
2024-01-08T19:14:46.126Z,33.95
2024-01-08T19:17:50.204Z,23.13
2024-01-08T19:20:54.810Z,21.88
2024-01-08T19:23:57.754Z,26.73
2024-01-08T19:27:02.368Z,21.17
2024-01-08T19:30:07.055Z,13.32
2024-01-08T19:33:10.458Z,9.77
2024-01-08T19:36:14.392Z,30.77
2024-01-08T19:39:18.266Z,50.03
2024-01-08T19:42:22.540Z,52.50
2024-01-08T19:45:26.417Z,72.80
2024-01-08T19:48:30.338Z,45.30
2024-01-08T19:51:34.077Z,51.13
2024-01-08T19:54:37.084Z,29.52
2024-01-08T19:57:40.915Z,33.60
2024-01-08T20:00:44.604Z,39.65
2024-01-08T20:03:48.304Z,13.15
2024-01-08T20:06:53.425Z,28.75
2024-01-08T20:09:57.540Z,82.70
2024-01-08T20:13:01.919Z,25.40
2024-01-08T20:16:09.025Z,49.85
2024-01-08T20:19:12.999Z,61.43
2024-01-08T20:22:16.967Z,47.38
2024-01-08T20:25:23.036Z,45.90
2024-01-08T20:28:26.775Z,19.47
2024-01-08T20:31:30.313Z,22.63
2024-01-08T20:34:34.357Z,43.97
2024-01-08T20:37:38.239Z,36.78
2024-01-08T20:40:41.857Z,19.02
2024-01-08T20:43:47.691Z,37.28
2024-01-08T20:46:51.567Z,12.80
2024-01-08T20:49:55.614Z,32.53
2024-01-08T20:53:00.137Z,30.40
2024-01-08T20:56:05.408Z,32.70
2024-01-08T20:59:09.063Z,35.47
2024-01-08T21:02:14.079Z,33.20
2024-01-08T21:05:17.947Z,52.03
2024-01-08T21:08:22.154Z,45.58
2024-01-08T21:11:25.860Z,33.28
2024-01-08T21:14:29.366Z,51.08
2024-01-08T21:17:33.332Z,43.60
2024-01-08T21:20:37.715Z,33.60
2024-01-08T21:23:41.469Z,31.52
2024-01-08T21:26:45.680Z,43.33
2024-01-08T21:29:49.513Z,45.63
2024-01-08T21:32:53.681Z,35.85
2024-01-08T21:35:57.468Z,46.88
2024-01-08T21:39:02.023Z,31.25
2024-01-08T21:42:05.788Z,61.95
2024-01-08T21:45:10.796Z,20.50
2024-01-08T21:48:15.246Z,29.80
2024-01-08T21:51:18.821Z,47.97
2024-01-08T21:54:22.432Z,41.83
2024-01-08T21:57:25.749Z,51.83
2024-01-08T22:00:28.724Z,37.70
2024-01-08T22:03:31.743Z,26.80
2024-01-08T22:06:34.755Z,34.00
2024-01-08T22:09:38.141Z,31.52
2024-01-08T22:12:43.079Z,37.85
2024-01-08T22:15:48.795Z,14.40
2024-01-08T22:18:52.805Z,42.38
2024-01-08T22:21:56.825Z,39.87
2024-01-08T22:24:59.883Z,9.25
2024-01-08T22:28:03.640Z,32.03
2024-01-08T22:31:07.567Z,24.63
2024-01-08T22:34:11.141Z,21.48
2024-01-08T22:37:14.741Z,25.83
2024-01-08T22:40:19.986Z,37.45
2024-01-08T22:43:23.636Z,23.90
2024-01-08T22:46:27.196Z,36.08
2024-01-08T22:49:30.098Z,22.52
2024-01-08T22:52:33.355Z,37.57
2024-01-08T22:55:36.905Z,50.00
2024-01-08T22:58:40.082Z,42.78
2024-01-08T23:01:50.086Z,50.67
2024-01-08T23:04:53.507Z,37.30
2024-01-08T23:07:56.931Z,53.42
2024-01-08T23:11:02.168Z,32.35
2024-01-08T23:14:07.221Z,59.95
2024-01-08T23:17:10.613Z,33.67
2024-01-08T23:20:15.892Z,14.38
2024-01-08T23:23:19.295Z,42.73
2024-01-08T23:26:22.369Z,42.88
2024-01-08T23:29:26.478Z,67.35
2024-01-08T23:32:30.133Z,46.63
2024-01-08T23:35:34.323Z,37.47
2024-01-08T23:38:37.652Z,40.83
2024-01-08T23:41:41.823Z,77.10
2024-01-08T23:44:45.650Z,43.05
2024-01-08T23:47:49.924Z,59.05
2024-01-08T23:50:53.784Z,79.15
2024-01-08T23:53:57.768Z,36.63
2024-01-08T23:57:01.437Z,56.45
